• Join FlightAware (Why Join?)
  • Login
  • US Flag 
02:14AM EDT


 

Airport Tracker/Info


-or-


 

Live Flight TrackerFlight Track Log ✈ EGF4247 ✈ 18-Apr-2013 ✈ KBUF - KORD

Flight Track Log - Related Links

Times and Time Zones

All times are in EDT time to prevent confusion due to time zone crossing. See the EGF4247 flight status page for this flight to view local times or setup timezone preferences in your user account.

Time Position Orientation Groundspeed Altitude Reporting Facility
EDT Latitude Longitude Course Direction KTS MPH feet Rate Location/Type
04:49PM 42.8833 -78.8000 274° West 193 222 3,400  Level Buffalo TRACON
04:50PM 42.9500 -79.0646 270° West  Level FlightAware Approximate
04:50PM 42.8667 -78.8667 251° West 206 237 6,500  Level Buffalo TRACON
04:51PM 42.9595 -79.1806 277° West  Level FlightAware Approximate
04:51PM 42.8833 -78.9500 285° West 239 275 8,000  Level Buffalo TRACON
04:51PM 42.8833 -78.9667 270° West 230 265 9,100 1,980 Climbing Toronto Center
04:52PM 42.9667 -79.2969 270° West  Level FlightAware Approximate
04:52PM 42.8833 -79.0667 270° West 240 276 11,000  Level Toronto Center
04:53PM 42.9667 -79.4138 270° West  Level FlightAware Approximate
04:53PM 42.9000 -79.1500 285° West 260 299 12,200  Level Toronto Center
04:54PM 42.9682 -79.5306 274° West  Level FlightAware Approximate
04:54PM 42.9000 -79.2667 270° West 280 322 13,500  Level Toronto Center
04:55PM 42.9167 -79.3833 281° West 300 345 14,800 1,260 Climbing Toronto Center
04:56PM 42.9167 -79.5000 270° West 310 357 16,100 1,380 Climbing Toronto Center
04:57PM 42.9333 -79.6333 280° West 320 368 17,600 1,560 Climbing Toronto Center
04:58PM 42.9333 -79.7500 270° West 320 368 19,300 1,500 Climbing Toronto Center
04:59PM 42.9500 -79.8667 281° West 320 368 20,700 1,500 Climbing Toronto Center
05:00PM 42.9500 -80.0000 270° West 320 368 22,300 1,440 Climbing Toronto Center
05:01PM 42.9667 -80.1167 281° West 320 368 23,600 1,320 Climbing Toronto Center
05:02PM 42.9333 -80.2333 249° West 310 357 25,000 1,320 Climbing Toronto Center
05:03PM 42.9167 -80.3333 257° West 310 357 26,300 1,200 Climbing Toronto Center
05:04PM 42.8833 -80.4500 249° West 310 357 27,500 840 Climbing Toronto Center
05:05PM 42.8500 -80.5667 249° West 320 368 28,000 240 Climbing Toronto Center
05:06PM 42.8167 -80.6833 249° West 350 403 28,000  Level Toronto Center
05:07PM 42.7667 -80.8333 246° West 370 426 28,000  Level Toronto Center
05:08PM 42.7333 -80.9667 251° West 390 449 28,000  Level Toronto Center
05:09PM 42.7000 -81.1000 251° West 400 460 28,000  Level Toronto Center
05:10PM 42.6833 -81.2500 261° West 400 460 28,000  Level Toronto Center
05:11PM 42.6667 -81.4000 261° West 400 460 28,000  Level Toronto Center
05:12PM 42.6500 -81.5667 262° West 400 460 28,000  Level Toronto Center
05:13PM 42.6667 -81.7000 280° West 400 460 28,000 60 Level Toronto Center
05:14PM 42.7000 -81.8500 287° West 410 472 28,200 660 Climbing Toronto Center
05:15PM 42.7000 -82.0000 270° West 400 460 29,400 1,140 Climbing Toronto Center
05:16PM 42.7333 -82.1333 289° West 390 449 30,500 1,020 Climbing Toronto Center
05:17PM 42.7642 -82.3025 284° West 390 449 31,600 720 Climbing Cleveland Center
05:18PM 42.7847 -82.4475 281° West 390 449 32,000 180 Climbing Cleveland Center
05:19PM 42.8072 -82.5953 282° West 396 456 32,000  Level Cleveland Center
05:20PM 42.8275 -82.7489 280° West 402 463 32,000  Level Cleveland Center
05:21PM 42.8517 -82.9025 282° West 412 474 32,000  Level Cleveland Center
05:22PM 42.8692 -83.0564 279° West 412 474 32,000  Level Cleveland Center
05:23PM 42.8892 -83.1958 281° West 412 474 32,000  Level Cleveland Center
05:24PM 42.9128 -83.3444 282° West 412 474 32,000  Level Cleveland Center
05:25PM 42.9319 -83.4983 280° West 412 474 32,000  Level Cleveland Center
05:26PM 42.9550 -83.6528 282° West 412 474 32,000  Level Cleveland Center
05:27PM 42.9614 -83.7978 273° West 405 466 32,000  Level Cleveland Center
05:28PM 42.9469 -83.9417 262° West 393 452 32,000  Level Cleveland Center
05:29PM 42.9322 -84.0825 262° West 388 447 32,000  Level Cleveland Center
05:30PM 42.9197 -84.2236 263° West 388 447 32,000  Level Cleveland Center
05:32PM 42.8833 -84.5000 260° West 380 437 32,000  Level Toronto Center
05:33PM 42.8797 -84.6231 268° West 375 432 32,000  Level Chicago Center
05:34PM 42.8650 -84.7631 262° West 375 432 32,000  Level Chicago Center
05:35PM 42.8508 -84.9028 262° West 373 429 32,000  Level Chicago Center
05:36PM 42.8361 -85.0425 262° West 373 429 32,000 -420 Level Chicago Center
05:37PM 42.8183 -85.2097 262° West 372 428 31,200 -900 Descending Chicago Center
05:38PM 42.8025 -85.3544 262° West 381 438 30,200 -1,020 Descending Chicago Center
05:39PM 42.7861 -85.4975 261° West 384 442 29,200 -1,080 Descending Chicago Center
05:40PM 42.7625 -85.6306 251° West 366 421 28,100 -1,200 Descending Chicago Center
05:41PM 42.7496 -85.6376 251° West  Level FlightAware Approximate
05:41PM 42.7372 -85.7656 256° West 365 420 26,800  Level Chicago Center
05:42PM 42.7144 -85.8981 257° West 359 413 24,900 -1,800 Descending Chicago Center
05:44PM 42.6903 -86.0160 254° West  Level FlightAware Approximate
05:44PM 42.6919 -86.0256 254° West 348 400 23,100  Level Chicago Center
05:45PM 42.6692 -86.1483 256° West 337 388 21,400 -1,500 Descending Chicago Center
05:46PM 42.6439 -86.2867 256° West 316 364 20,000 -720 Descending Chicago Center
05:47PM 42.6222 -86.3961 255° West 304 350 20,000 -60 Level Chicago Center
05:48PM 42.6047 -86.4964 257° West 279 321 19,900 -540 Descending Chicago Center
05:49PM 42.5853 -86.5944 255° West 270 311 18,900 -1,080 Descending Chicago Center
05:50PM 42.5681 -86.6900 256° West 269 310 17,700 -1,500 Descending Chicago Center
05:51PM 42.5433 -86.7942 252° West 280 322 15,800 -1,860 Descending Chicago Center
05:52PM 42.5150 -86.8978 250° West 293 337 13,900 -1,980 Descending Chicago Center
05:53PM 42.4850 -87.0078 250° West 258 297 11,800 -1,860 Descending Chicago Center
05:54PM 42.4608 -87.0917 249° West 241 277 10,100 -1,380 Descending Chicago Center
05:55PM 42.4372 -87.1775 250° West 243 280 9,000 -540 Descending Chicago Center
05:56PM 42.4125 -87.2678 250° West 254 292 9,000  Level Chicago Center
05:57PM 42.3872 -87.3592 249° West 261 300 9,000  Level Chicago Center
05:58PM 42.3494 -87.4533 242° Southwest 252 290 9,000 -240 Level Chicago Center
05:59PM 42.3114 -87.5300 236° Southwest 248 285 8,600 -660 Descending Chicago Center
06:00PM 42.2714 -87.6025 233° Southwest 244 281 7,700 -1,020 Descending Chicago Center
06:01PM 42.2211 -87.6442 212° Southwest 212 244 6,500 -1,260 Descending Chicago Center
06:02PM 42.1739 -87.7022 222° Southwest 194 223 5,200 -1,080 Descending Chicago Center
06:03PM 42.1364 -87.7442 220° Southwest 181 208 4,300 -900 Descending Chicago Center